Time;durP1;ratioP1;P1;durP2;ratioP2;P2;SDS_P1;SDS_P2;PMS_P1;PMS_P2;Temp;Humidity;BMP_temperature;BMP_pressure;BME280_temperature;BME280_humidity;BME280_pressure;Samples;Min_cycle;Max_cycle;Signal;HPM_P1;HPM_P2
2023/10/04 00:01:42;;;;;;;14.18;1.77;;;14.20;99.90;;;;;;4992154;28;20180;-75
2023/10/04 00:04:08;;;;;;;12.32;1.88;;;14.30;99.90;;;;;;4992438;28;20560;-75
2023/10/04 00:06:34;;;;;;;11.90;1.77;;;;;;;;;;4992065;28;20175;-75
2023/10/04 00:09:00;;;;;;;11.27;1.88;;;14.30;99.90;;;;;;4992091;28;20178;-75
2023/10/04 00:11:26;;;;;;;10.63;1.80;;;14.20;99.90;;;;;;4992081;28;20210;-75
2023/10/04 00:13:52;;;;;;;10.02;1.90;;;14.20;99.90;;;;;;4991787;28;20183;-76
2023/10/04 00:16:18;;;;;;;11.95;1.73;;;14.10;99.90;;;;;;4992269;28;20233;-76
2023/10/04 00:18:44;;;;;;;10.45;2.10;;;14.20;99.90;;;;;;4991856;28;20246;-75
2023/10/04 00:21:10;;;;;;;9.23;1.85;;;;;;;;;;4992025;28;20646;-76
2023/10/04 00:23:39;;;;;;;11.18;1.40;;;14.30;99.90;;;;;;4992006;28;20176;-76
2023/10/04 00:26:07;;;;;;;7.88;1.70;;;;;;;;;;4991772;28;20174;-75
2023/10/04 00:28:33;;;;;;;10.35;1.75;;;14.30;99.90;;;;;;4991715;28;20661;-75
2023/10/04 00:30:59;;;;;;;9.45;1.38;;;14.10;99.90;;;;;;4991558;28;20716;-75
2023/10/04 00:33:26;;;;;;;11.48;1.55;;;14.30;99.90;;;;;;4991702;28;20172;-73
2023/10/04 00:35:52;;;;;;;10.95;2.05;;;;;;;;;;4991382;28;20182;-74
2023/10/04 00:38:19;;;;;;;12.02;1.42;;;14.40;99.90;;;;;;4991734;28;20182;-74
2023/10/04 00:40:47;;;;;;;13.60;2.28;;;14.10;99.90;;;;;;4991686;28;20262;-74
2023/10/04 00:43:15;;;;;;;11.15;1.80;;;14.30;99.90;;;;;;4991432;28;20231;-74
2023/10/04 00:45:47;;;;;;;8.88;1.60;;;14.30;99.90;;;;;;4991652;28;20203;-74
2023/10/04 00:48:18;;;;;;;12.02;1.85;;;14.30;99.90;;;;;;4991588;28;20175;-74
2023/10/04 00:50:45;;;;;;;12.02;1.83;;;14.30;99.90;;;;;;4991489;28;20257;-74
2023/10/04 00:53:15;;;;;;;12.55;1.67;;;14.40;99.90;;;;;;4991450;28;20182;-74
2023/10/04 00:55:43;;;;;;;11.30;1.85;;;14.10;99.90;;;;;;4991731;28;20266;-74
2023/10/04 00:58:10;;;;;;;10.10;1.65;;;14.30;99.90;;;;;;4991370;28;20654;-74
2023/10/04 01:00:44;;;;;;;9.05;1.65;;;14.20;99.90;;;;;;4991533;28;20207;-73
2023/10/04 01:03:11;;;;;;;11.45;1.77;;;;;;;;;;4994212;28;20647;-74
2023/10/04 01:05:47;;;;;;;6.50;1.40;;;14.30;99.90;;;;;;4995463;28;20217;-74
2023/10/04 01:08:20;;;;;;;9.32;1.50;;;14.10;99.90;;;;;;4995472;28;20194;-74
2023/10/04 01:10:47;;;;;;;10.93;1.75;;;14.00;99.90;;;;;;4995340;28;20211;-74
2023/10/04 01:13:17;;;;;;;13.30;1.40;;;14.10;99.90;;;;;;4995289;28;20183;-73
2023/10/04 01:15:42;;;;;;;13.50;1.40;;;14.10;99.90;;;;;;4995243;28;20171;-74
2023/10/04 01:18:11;;;;;;;11.82;2.17;;;;;;;;;;4995259;28;20198;-73
2023/10/04 01:20:39;;;;;;;12.60;1.45;;;;;;;;;;4995150;28;20214;-74
2023/10/04 01:23:12;;;;;;;11.20;1.40;;;14.00;99.90;;;;;;4995147;28;20159;-74
2023/10/04 01:25:40;;;;;;;17.70;2.20;;;13.90;99.90;;;;;;4995232;28;20580;-73
2023/10/04 01:28:17;;;;;;;9.18;1.92;;;14.20;99.90;;;;;;4992215;28;20171;-74
2023/10/04 01:30:46;;;;;;;10.73;1.50;;;13.90;99.90;;;;;;4991617;28;20246;-74
2023/10/04 01:33:18;;;;;;;14.23;1.70;;;14.10;99.90;;;;;;4994740;28;20182;-74
2023/10/04 01:35:49;;;;;;;8.27;1.67;;;14.20;99.90;;;;;;4994835;28;20179;-74
2023/10/04 01:38:16;;;;;;;15.30;1.60;;;14.10;99.90;;;;;;4994885;28;20167;-74
2023/10/04 01:40:47;;;;;;;9.65;1.65;;;13.90;99.90;;;;;;4995284;28;20222;-73
2023/10/04 01:43:16;;;;;;;11.07;1.88;;;;;;;;;;4994530;28;20231;-74
2023/10/04 01:45:49;;;;;;;12.43;2.20;;;13.90;99.90;;;;;;4995133;28;20233;-74
2023/10/04 01:48:15;;;;;;;8.63;1.52;;;;;;;;;;4993379;28;20521;-74
2023/10/04 01:50:44;;;;;;;10.98;1.55;;;13.90;99.90;;;;;;4994615;28;20241;-74
2023/10/04 01:53:11;;;;;;;14.77;1.75;;;;;;;;;;4994544;28;20204;-74
2023/10/04 01:55:37;;;;;;;12.15;1.50;;;13.90;99.90;;;;;;4994649;28;20175;-75
2023/10/04 01:58:04;;;;;;;11.45;2.13;;;13.90;99.90;;;;;;4994461;28;20175;-74
2023/10/04 02:00:30;;;;;;;11.30;1.77;;;;;;;;;;4992290;28;20262;-74
2023/10/04 02:02:55;;;;;;;10.90;1.77;;;13.70;99.90;;;;;;4994189;28;20723;-74
2023/10/04 02:05:31;;;;;;;8.43;1.58;;;13.60;99.90;;;;;;4994242;28;20183;-74
2023/10/04 02:07:57;;;;;;;10.35;1.40;;;13.40;99.90;;;;;;4994203;28;20174;-74
2023/10/04 02:10:24;;;;;;;12.05;1.63;;;13.50;99.90;;;;;;4993912;28;20285;-74
2023/10/04 02:12:58;;;;;;;8.38;1.42;;;13.50;99.90;;;;;;4993513;28;20175;-74
2023/10/04 02:15:24;;;;;;;5.60;1.30;;;13.50;99.90;;;;;;4994163;28;20534;-74
2023/10/04 02:17:51;;;;;;;6.77;1.13;;;;;;;;;;4994023;28;20170;-74
2023/10/04 02:20:23;;;;;;;9.32;1.42;;;13.40;99.90;;;;;;4993841;28;20211;-74
2023/10/04 02:22:56;;;;;;;5.65;1.23;;;13.50;99.90;;;;;;4993815;28;20271;-74
2023/10/04 02:25:22;;;;;;;10.13;1.50;;;13.50;99.90;;;;;;4993912;28;20167;-74
2023/10/04 02:27:51;;;;;;;7.28;1.40;;;13.60;99.90;;;;;;4993648;28;20230;-74
2023/10/04 02:30:22;;;;;;;4.32;0.90;;;13.30;99.90;;;;;;4993605;28;20233;-75
2023/10/04 02:32:49;;;;;;;9.73;1.45;;;13.20;99.90;;;;;;4993861;28;20163;-74
2023/10/04 02:35:22;;;;;;;13.20;1.77;;;13.30;99.90;;;;;;4993577;28;20175;-75
2023/10/04 02:37:54;;;;;;;5.65;1.00;;;13.20;99.90;;;;;;4993801;28;20235;-74
2023/10/04 02:40:21;;;;;;;10.33;1.37;;;13.30;99.90;;;;;;4993802;28;20679;-74
2023/10/04 02:42:47;;;;;;;9.70;1.60;;;13.00;99.90;;;;;;4993420;28;20261;-74
2023/10/04 02:45:18;;;;;;;6.88;1.20;;;13.30;99.90;;;;;;4993588;28;20171;-74
2023/10/04 02:47:45;;;;;;;5.10;1.17;;;13.20;99.90;;;;;;4992113;28;20179;-74
2023/10/04 02:50:11;;;;;;;8.50;1.02;;;13.20;99.90;;;;;;4993281;28;20655;-74
2023/10/04 02:52:37;;;;;;;7.20;1.23;;;;;;;;;;4993526;28;20186;-74
2023/10/04 02:55:03;;;;;;;9.68;1.80;;;12.70;99.90;;;;;;4991931;28;20265;-74
2023/10/04 02:57:28;;;;;;;7.07;1.15;;;13.20;99.90;;;;;;4993082;28;20291;-74
2023/10/04 02:59:54;;;;;;;7.40;1.17;;;;;;;;;;4991799;28;20188;-76
2023/10/04 03:02:21;;;;;;;11.93;1.38;;;13.20;99.90;;;;;;4992977;28;20206;-75
2023/10/04 03:04:50;;;;;;;9.57;1.30;;;13.20;99.90;;;;;;4991777;28;20270;-74
2023/10/04 03:07:15;;;;;;;7.43;1.30;;;13.10;99.90;;;;;;4993012;28;20183;-75
2023/10/04 03:09:43;;;;;;;9.10;1.60;;;;;;;;;;4992594;28;20250;-74
2023/10/04 03:12:12;;;;;;;14.30;1.65;;;13.00;99.90;;;;;;4993045;28;20174;-74
2023/10/04 03:14:40;;;;;;;8.35;1.20;;;13.10;99.90;;;;;;4992929;28;20266;-74
2023/10/04 03:17:07;;;;;;;10.00;1.33;;;;;;;;;;4992755;28;20650;-74
2023/10/04 03:19:36;;;;;;;9.10;1.63;;;13.00;99.90;;;;;;4992764;28;20229;-75
2023/10/04 03:22:01;;;;;;;5.88;1.20;;;12.90;99.90;;;;;;4992762;28;20197;-75
2023/10/04 03:24:27;;;;;;;6.10;1.30;;;13.00;99.90;;;;;;4990688;28;20175;-75
2023/10/04 03:26:53;;;;;;;4.47;1.00;;;;;;;;;;4991284;28;20193;-75
2023/10/04 03:29:19;;;;;;;5.33;1.00;;;;;;;;;;4992574;28;20195;-75
2023/10/04 03:31:48;;;;;;;7.33;1.10;;;12.80;99.90;;;;;;4992504;28;20526;-75
2023/10/04 03:34:13;;;;;;;13.47;1.30;;;12.90;99.90;;;;;;4992542;28;20208;-75
2023/10/04 03:36:39;;;;;;;4.80;0.90;;;;;;;;;;4992576;28;20290;-74
2023/10/04 03:39:09;;;;;;;4.80;1.00;;;;;;;;;;4992916;28;20175;-75
2023/10/04 03:41:36;;;;;;;10.23;1.20;;;12.90;99.90;;;;;;4992245;28;20178;-74
2023/10/04 03:44:05;;;;;;;10.93;1.40;;;12.80;99.90;;;;;;4992292;28;20266;-75
2023/10/04 03:46:38;;;;;;;4.87;1.07;;;12.70;99.90;;;;;;5068657;28;20585;-75
2023/10/04 03:49:05;;;;;;;7.70;1.00;;;12.90;99.90;;;;;;5068410;28;20172;-75
2023/10/04 03:51:33;;;;;;;6.03;0.90;;;12.60;99.90;;;;;;5068235;28;20188;-75
2023/10/04 03:53:58;;;;;;;7.60;1.23;;;13.20;99.90;;;;;;5068340;28;20192;-74
2023/10/04 03:56:25;;;;;;;15.33;1.37;;;;;;;;;;5068097;28;20643;-75
2023/10/04 03:58:51;;;;;;;7.07;0.87;;;13.00;99.90;;;;;;5067963;28;20161;-75
2023/10/04 04:01:17;;;;;;;4.63;1.10;;;13.10;99.90;;;;;;5068258;28;20222;-75
2023/10/04 04:03:44;;;;;;;8.60;1.10;;;13.00;99.90;;;;;;5068015;28;20172;-74
2023/10/04 04:06:11;;;;;;;4.37;0.87;;;13.00;99.90;;;;;;5068117;28;20216;-75
2023/10/04 04:08:37;;;;;;;5.20;1.00;;;12.80;99.90;;;;;;5067911;28;20192;-75
2023/10/04 04:11:05;;;;;;;6.77;0.80;;;12.80;99.90;;;;;;5067908;28;20211;-75
2023/10/04 04:13:31;;;;;;;8.43;1.33;;;12.90;99.90;;;;;;5066653;28;20294;-75
2023/10/04 04:15:57;;;;;;;5.73;1.30;;;;;;;;;;5066662;28;20208;-75
2023/10/04 04:18:23;;;;;;;6.63;1.00;;;13.10;99.90;;;;;;5067908;28;20258;-75
2023/10/04 04:20:49;;;;;;;3.73;1.03;;;15.20;99.90;;;;;;5067780;28;20168;-75
2023/10/04 04:23:15;;;;;;;7.27;1.13;;;12.90;99.90;;;;;;5067713;28;20204;-76
2023/10/04 04:25:42;;;;;;;5.70;1.27;;;12.90;99.90;;;;;;5067466;28;20216;-75
2023/10/04 04:28:17;;;;;;;10.33;1.33;;;;;;;;;;5067508;28;20271;-75
2023/10/04 04:30:43;;;;;;;8.63;1.30;;;13.00;99.90;;;;;;5067525;28;20255;-75
2023/10/04 04:33:10;;;;;;;6.20;1.07;;;;;;;;;;5067476;28;20287;-74
2023/10/04 04:40:44;;;;;;;6.23;1.00;;;;;;;;;;5067425;28;20180;-74
2023/10/04 04:45:56;;;;;;;6.10;1.10;;;12.90;99.90;;;;;;5067195;28;20268;-74
2023/10/04 04:48:25;;;;;;;4.30;0.80;;;13.00;99.90;;;;;;5067029;28;20183;-74
2023/10/04 04:50:53;;;;;;;5.00;1.00;;;13.00;99.90;;;;;;5067366;28;20169;-75
2023/10/04 04:53:22;;;;;;;6.10;1.67;;;12.80;99.90;;;;;;5067122;28;20157;-74
2023/10/04 04:55:49;;;;;;;7.33;0.90;;;13.00;99.90;;;;;;5058026;28;20204;-75
2023/10/04 04:58:19;;;;;;;5.40;1.20;;;12.70;99.90;;;;;;5033362;28;20193;-74
2023/10/04 05:00:49;;;;;;;8.60;1.10;;;12.70;99.90;;;;;;5033915;28;20177;-75
2023/10/04 05:03:16;;;;;;;9.13;1.20;;;12.50;99.90;;;;;;5033676;28;20287;-75
2023/10/04 05:05:42;;;;;;;6.07;0.90;;;12.80;99.90;;;;;;5033464;28;20202;-75
2023/10/04 05:08:08;;;;;;;8.57;1.40;;;12.70;99.90;;;;;;5033708;28;20174;-74
2023/10/04 05:10:38;;;;;;;9.60;1.20;;;;;;;;;;5033721;28;20549;-74
2023/10/04 05:13:07;;;;;;;8.68;1.05;;;12.80;99.90;;;;;;5033871;28;20694;-74
2023/10/04 05:15:38;;;;;;;13.03;1.13;;;12.80;99.90;;;;;;5033870;28;20189;-75
2023/10/04 05:18:05;;;;;;;5.87;1.10;;;12.50;99.90;;;;;;5032401;28;20663;-74
2023/10/04 05:20:32;;;;;;;11.03;0.90;;;12.90;99.90;;;;;;5033686;28;20291;-74
2023/10/04 05:23:01;;;;;;;5.17;1.10;;;12.70;99.90;;;;;;5033416;28;20161;-75
2023/10/04 05:25:30;;;;;;;9.47;0.90;;;12.90;99.90;;;;;;5033222;28;20222;-75
2023/10/04 05:28:09;;;;;;;4.03;0.90;;;12.90;99.90;;;;;;5031946;28;20178;-74
2023/10/04 05:30:37;;;;;;;5.67;0.87;;;12.80;99.90;;;;;;5033173;28;20239;-74
2023/10/04 05:33:03;;;;;;;4.77;0.93;;;12.60;99.90;;;;;;5033366;28;20236;-74
2023/10/04 05:35:29;;;;;;;5.67;1.00;;;;;;;;;;5033080;28;20178;-75
2023/10/04 05:37:55;;;;;;;4.23;0.87;;;13.80;99.90;;;;;;5033287;28;20628;-75
2023/10/04 05:40:25;;;;;;;7.80;0.90;;;12.70;99.90;;;;;;5033163;28;20180;-75
2023/10/04 05:42:53;;;;;;;9.27;1.40;;;12.80;99.90;;;;;;5032938;28;20169;-74
2023/10/04 05:45:23;;;;;;;4.13;0.90;;;12.80;99.90;;;;;;5032791;28;20576;-74
2023/10/04 05:47:50;;;;;;;8.53;1.20;;;12.80;99.90;;;;;;5032606;28;20558;-75
2023/10/04 05:50:26;;;;;;;6.07;1.10;;;12.60;99.90;;;;;;5032814;28;20184;-74
2023/10/04 05:52:53;;;;;;;9.50;1.40;;;13.00;99.90;;;;;;5032595;28;20527;-75
2023/10/04 05:55:20;;;;;;;8.70;1.10;;;12.90;99.90;;;;;;5035386;28;20175;-75
2023/10/04 05:57:47;;;;;;;10.17;1.13;;;12.90;99.90;;;;;;5052703;28;20174;-76
2023/10/04 06:02:55;;;;;;;9.40;1.20;;;12.90;99.90;;;;;;5052567;28;20185;-75
2023/10/04 06:05:23;;;;;;;4.73;1.00;;;12.90;99.90;;;;;;5052619;28;20209;-74
2023/10/04 06:07:54;;;;;;;5.13;1.47;;;12.90;99.90;;;;;;5051663;28;20169;-74
2023/10/04 06:10:20;;;;;;;11.77;1.33;;;12.90;99.90;;;;;;5052164;28;20711;-74
2023/10/04 06:12:46;;;;;;;9.23;1.37;;;12.90;99.90;;;;;;5052532;28;20621;-74
2023/10/04 06:15:16;;;;;;;5.40;1.03;;;13.00;99.90;;;;;;5052264;28;20173;-73
2023/10/04 06:17:46;;;;;;;7.27;1.23;;;12.90;99.90;;;;;;5052254;28;20165;-74
2023/10/04 06:20:23;;;;;;;2.87;0.80;;;10.20;99.90;;;;;;5052346;28;20176;-74
2023/10/04 06:23:00;;;;;;;8.10;1.33;;;12.90;99.90;;;;;;5052170;28;20165;-74
2023/10/04 06:25:28;;;;;;;12.20;1.40;;;13.00;99.90;;;;;;5051853;28;20250;-74
2023/10/04 06:27:56;;;;;;;4.57;1.30;;;13.20;99.90;;;;;;5052036;28;20193;-74
2023/10/04 06:30:33;;;;;;;6.37;1.03;;;12.80;99.90;;;;;;5051736;28;20276;-74
2023/10/04 06:33:00;;;;;;;8.43;1.37;;;13.00;99.90;;;;;;5051926;28;20177;-74
2023/10/04 06:35:27;;;;;;;9.43;1.40;;;12.80;99.90;;;;;;5051942;28;20200;-74
2023/10/04 06:37:58;;;;;;;6.07;1.07;;;13.10;99.90;;;;;;5050535;28;20707;-74
2023/10/04 06:40:25;;;;;;;10.47;1.20;;;12.90;99.90;;;;;;5052096;28;20173;-75
2023/10/04 06:42:53;;;;;;;9.18;1.45;;;13.00;99.90;;;;;;5051741;28;20193;-75
2023/10/04 06:45:20;;;;;;;7.93;1.20;;;12.90;99.90;;;;;;5051352;28;20217;-75
2023/10/04 06:47:49;;;;;;;6.07;1.20;;;12.70;99.90;;;;;;5051958;28;20215;-75
2023/10/04 06:50:19;;;;;;;6.00;1.20;;;12.90;99.90;;;;;;5051430;28;20165;-75
2023/10/04 06:52:50;;;;;;;4.30;1.13;;;12.90;99.90;;;;;;5050574;28;20173;-75
2023/10/04 06:55:18;;;;;;;7.68;1.00;;;13.00;99.90;;;;;;5051540;28;20239;-75
2023/10/04 06:57:45;;;;;;;9.53;1.20;;;12.70;99.90;;;;;;5051553;28;20174;-74
2023/10/04 07:00:20;;;;;;;6.23;0.90;;;12.80;99.90;;;;;;5051282;28;20252;-75
2023/10/04 07:02:55;;;;;;;6.07;1.20;;;13.00;99.90;;;;;;5051394;28;20176;-75
2023/10/04 07:05:22;;;;;;;4.90;1.00;;;13.10;99.90;;;;;;5050135;28;20618;-75
2023/10/04 07:07:49;;;;;;;6.23;1.17;;;13.10;99.90;;;;;;5051383;28;20554;-75
2023/10/04 07:10:15;;;;;;;3.93;0.73;;;13.10;99.90;;;;;;5051193;28;20264;-75
2023/10/04 07:12:45;;;;;;;9.20;1.50;;;13.20;99.90;;;;;;5051152;28;20177;-75
2023/10/04 07:15:12;;;;;;;8.48;1.58;;;13.10;99.90;;;;;;5051316;28;20173;-75
2023/10/04 07:17:41;;;;;;;5.90;1.13;;;13.20;99.90;;;;;;5051216;28;20165;-74
2023/10/04 07:20:14;;;;;;;6.23;1.20;;;13.00;99.90;;;;;;5049727;28;20180;-75
2023/10/04 07:22:45;;;;;;;8.00;1.10;;;13.10;99.90;;;;;;5051158;28;20231;-74
2023/10/04 07:25:12;;;;;;;4.63;1.03;;;13.10;99.90;;;;;;5051001;28;20209;-74
2023/10/04 07:27:46;;;;;;;7.33;1.07;;;13.10;99.90;;;;;;5051107;28;20166;-74
2023/10/04 07:30:12;;;;;;;13.70;1.40;;;13.20;99.90;;;;;;5050935;28;20165;-74
2023/10/04 07:32:46;;;;;;;8.10;1.37;;;13.20;99.90;;;;;;5050988;28;20169;-74
2023/10/04 07:35:19;;;;;;;6.13;0.90;;;13.20;99.90;;;;;;5050933;28;20166;-75
2023/10/04 07:37:45;;;;;;;10.53;1.23;;;13.10;99.90;;;;;;5051240;28;20192;-75
2023/10/04 07:40:14;;;;;;;5.83;0.90;;;13.50;99.90;;;;;;5050797;28;20169;-74
2023/10/04 07:42:41;;;;;;;3.55;1.20;;;13.60;99.90;;;;;;5050859;28;20173;-75
2023/10/04 07:45:08;;;;;;;8.73;1.80;;;13.80;99.90;;;;;;5050506;28;20300;-75
2023/10/04 07:47:38;;;;;;;6.03;1.15;;;13.60;99.90;;;;;;5050831;28;20207;-75
2023/10/04 07:50:09;;;;;;;3.53;1.02;;;13.70;99.90;;;;;;5050726;28;20644;-75
2023/10/04 07:52:37;;;;;;;8.25;1.30;;;13.10;99.90;;;;;;5050827;28;20640;-74
2023/10/04 07:55:05;;;;;;;11.07;1.38;;;;;;;;;;5050834;28;20196;-75
2023/10/04 07:57:36;;;;;;;7.72;1.02;;;13.50;99.90;;;;;;5050704;28;20169;-74
2023/10/04 08:00:04;;;;;;;10.18;1.30;;;13.80;99.90;;;;;;5050702;28;20184;-75
2023/10/04 08:02:30;;;;;;;9.95;1.20;;;14.20;99.90;;;;;;5047740;28;20185;-75
2023/10/04 08:04:56;;;;;;;5.40;1.10;;;13.90;99.90;;;;;;5037697;28;20217;-74
2023/10/04 08:07:21;;;;;;;11.35;1.63;;;14.00;99.90;;;;;;5050397;28;20509;-75
2023/10/04 08:09:47;;;;;;;7.70;1.13;;;14.00;99.90;;;;;;5050425;28;20575;-75
2023/10/04 08:12:14;;;;;;;5.35;1.35;;;14.10;99.90;;;;;;5050368;28;20172;-75
2023/10/04 08:14:40;;;;;;;9.93;1.52;;;14.30;99.90;;;;;;5051593;28;20674;-74
2023/10/04 08:17:06;;;;;;;9.63;1.52;;;14.20;99.90;;;;;;5050488;28;20174;-75
2023/10/04 08:19:32;;;;;;;10.35;1.33;;;14.10;99.90;;;;;;5050791;28;20184;-75
2023/10/04 08:21:58;;;;;;;7.20;1.33;;;14.50;99.90;;;;;;5050597;28;20169;-75
2023/10/04 08:24:23;;;;;;;34.63;3.67;;;14.60;99.90;;;;;;5050470;28;20180;-74
2023/10/04 08:26:50;;;;;;;18.70;2.35;;;14.50;99.90;;;;;;5050523;28;20274;-74
2023/10/04 08:29:15;;;;;;;7.10;1.58;;;14.60;99.90;;;;;;5049048;28;20181;-74
2023/10/04 08:31:41;;;;;;;8.20;1.70;;;14.70;99.90;;;;;;5051304;28;20181;-74
2023/10/04 08:34:07;;;;;;;7.70;1.45;;;;;;;;;;5054177;28;20273;-75
2023/10/04 08:36:33;;;;;;;11.05;1.77;;;14.50;99.90;;;;;;5054110;28;20169;-75
2023/10/04 08:39:10;;;;;;;9.30;1.58;;;14.60;99.90;;;;;;5054226;28;20181;-75
2023/10/04 08:41:36;;;;;;;6.80;1.60;;;14.40;99.90;;;;;;5054060;28;20253;-74
2023/10/04 08:44:03;;;;;;;9.68;1.85;;;14.60;99.90;;;;;;5053966;28;20185;-75
2023/10/04 08:46:31;;;;;;;5.30;1.60;;;14.60;99.90;;;;;;5052478;28;20243;-75
2023/10/04 08:48:58;;;;;;;4.32;1.13;;;14.90;99.90;;;;;;5053850;28;20173;-75
2023/10/04 08:51:35;;;;;;;8.70;1.40;;;14.50;99.90;;;;;;5053815;28;20169;-75
2023/10/04 08:54:24;;;;;;;8.27;1.58;;;14.50;99.90;;;;;;5053895;28;20165;-74
2023/10/04 08:57:04;;;;;;;8.45;1.60;;;14.30;99.90;;;;;;5050719;28;20284;-74
2023/10/04 08:59:33;;;;;;;12.13;1.50;;;14.60;99.90;;;;;;5052235;28;20640;-74
2023/10/04 09:01:59;;;;;;;9.90;1.30;;;14.70;99.90;;;;;;5053893;28;20205;-75
2023/10/04 09:04:27;;;;;;;8.95;1.58;;;14.90;99.90;;;;;;5053685;28;20165;-74
2023/10/04 09:06:53;;;;;;;9.55;1.95;;;15.00;99.90;;;;;;5053678;28;20173;-74
2023/10/04 09:09:19;;;;;;;4.10;0.95;;;14.90;99.90;;;;;;5053680;28;20169;-75
2023/10/04 09:11:45;;;;;;;6.82;1.63;;;15.10;99.90;;;;;;5053664;28;20173;-75
2023/10/04 09:14:14;;;;;;;5.63;1.27;;;15.00;99.90;;;;;;5052215;28;20330;-74
2023/10/04 09:16:39;;;;;;;8.43;1.38;;;15.20;99.90;;;;;;5053647;28;20177;-74
2023/10/04 09:19:07;;;;;;;6.70;1.27;;;15.00;99.90;;;;;;5052236;28;20178;-74
2023/10/04 09:21:38;;;;;;;9.35;1.38;;;15.10;99.90;;;;;;5053341;28;20161;-74
2023/10/04 09:24:14;;;;;;;5.18;1.30;;;14.80;99.90;;;;;;5053428;28;20333;-74
2023/10/04 09:26:53;;;;;;;6.72;1.40;;;15.20;99.90;;;;;;5053227;28;20204;-74
2023/10/04 09:29:48;;;;;;;5.03;1.15;;;15.30;99.90;;;;;;5053445;28;20173;-74
2023/10/04 09:32:16;;;;;;;11.23;1.55;;;15.80;99.90;;;;;;5048435;28;20836;-75
2023/10/04 09:34:57;;;;;;;6.88;1.38;;;15.90;99.90;;;;;;5053146;28;20181;-74
2023/10/04 09:37:23;;;;;;;10.50;1.88;;;15.50;99.90;;;;;;5053055;28;20264;-74
2023/10/04 09:39:49;;;;;;;11.18;1.83;;;;;;;;;;5053104;28;20268;-74
2023/10/04 09:42:15;;;;;;;12.70;1.77;;;15.90;99.90;;;;;;5052905;28;20627;-76
2023/10/04 09:44:41;;;;;;;4.97;1.27;;;;;;;;;;5052547;28;20220;-74
2023/10/04 09:47:09;;;;;;;8.32;1.42;;;15.70;99.90;;;;;;5052946;28;20169;-74
2023/10/04 09:49:36;;;;;;;5.07;1.42;;;16.10;99.90;;;;;;5052879;28;20558;-74
2023/10/04 09:52:12;;;;;;;5.50;1.23;;;16.00;99.90;;;;;;5052816;28;20162;-75
2023/10/04 09:54:38;;;;;;;9.73;1.42;;;16.00;99.90;;;;;;5052867;28;20173;-74
2023/10/04 09:57:07;;;;;;;6.35;1.50;;;15.90;99.90;;;;;;5052740;28;20272;-74
2023/10/04 09:59:34;;;;;;;7.60;1.42;;;15.80;99.90;;;;;;5052537;28;20161;-74
2023/10/04 10:02:01;;;;;;;7.68;1.20;;;15.70;99.90;;;;;;5052460;28;20231;-74
2023/10/04 10:04:29;;;;;;;10.55;1.75;;;15.50;99.90;;;;;;5052495;28;20171;-74
2023/10/04 10:07:18;;;;;;;7.28;1.50;;;15.50;99.90;;;;;;5052534;28;20624;-74
2023/10/04 10:09:58;;;;;;;8.45;1.70;;;15.60;99.90;;;;;;5041103;28;20219;-75
2023/10/04 10:12:31;;;;;;;30.35;4.05;;;15.10;99.90;;;;;;5051832;28;20230;-75
2023/10/04 10:15:00;;;;;;;26.63;2.88;;;16.00;99.90;;;;;;5045707;28;20213;-75
2023/10/04 10:17:27;;;;;;;11.70;1.48;;;16.20;99.90;;;;;;5032507;28;20162;-74
2023/10/04 10:19:55;;;;;;;8.05;1.60;;;16.10;99.90;;;;;;5032382;28;20170;-75
2023/10/04 10:22:20;;;;;;;6.95;1.30;;;16.60;99.90;;;;;;5032638;28;20186;-75
2023/10/04 10:25:16;;;;;;;6.45;1.33;;;16.70;99.90;;;;;;5032297;28;20221;-74
2023/10/04 10:27:43;;;;;;;8.02;1.40;;;16.80;99.90;;;;;;5043544;28;20253;-75
2023/10/04 10:30:09;;;;;;;6.95;1.70;;;17.30;99.90;;;;;;5051757;28;20162;-75
2023/10/04 10:32:35;;;;;;;7.32;1.50;;;17.30;99.90;;;;;;5051753;28;20176;-75
2023/10/04 10:35:05;;;;;;;9.85;1.65;;;17.20;99.90;;;;;;5051966;28;20528;-75
2023/10/04 10:37:40;;;;;;;7.90;1.25;;;17.20;99.90;;;;;;5051755;28;20197;-74
2023/10/04 10:40:26;;;;;;;8.73;1.60;;;17.30;99.90;;;;;;5051996;28;20180;-74
2023/10/04 10:43:11;;;;;;;6.75;1.50;;;17.30;99.90;;;;;;5051539;28;20176;-75
2023/10/04 10:45:37;;;;;;;6.53;1.50;;;17.80;99.90;;;;;;5050107;28;20581;-74
2023/10/04 10:48:02;;;;;;;4.75;1.30;;;18.00;99.90;;;;;;5051786;28;20192;-74
2023/10/04 10:50:33;;;;;;;8.27;1.60;;;18.00;99.90;;;;;;5051939;28;20177;-74
2023/10/04 10:53:05;;;;;;;7.82;1.42;;;18.20;99.90;;;;;;5051731;28;20781;-74
2023/10/04 10:55:33;;;;;;;6.82;1.38;;;18.10;99.90;;;;;;5051244;28;20536;-74
2023/10/04 10:57:59;;;;;;;7.85;1.40;;;18.00;99.90;;;;;;5051453;28;20169;-74
2023/10/04 11:00:29;;;;;;;8.00;1.42;;;17.60;99.90;;;;;;5051369;28;20176;-74
2023/10/04 11:02:55;;;;;;;8.80;2.13;;;17.50;99.90;;;;;;5051544;28;20169;-73
2023/10/04 11:05:22;;;;;;;10.38;1.70;;;;;;;;;;5051464;28;20587;-75
2023/10/04 11:07:49;;;;;;;5.75;1.00;;;17.30;99.90;;;;;;5051438;28;20643;-74
2023/10/04 11:10:16;;;;;;;6.57;1.52;;;17.30;99.90;;;;;;5051585;28;20169;-74
2023/10/04 11:12:43;;;;;;;3.35;1.20;;;17.00;99.90;;;;;;5051517;28;20185;-74
2023/10/04 11:15:09;;;;;;;4.53;1.13;;;17.10;99.90;;;;;;5051272;28;20184;-74
2023/10/04 11:17:36;;;;;;;7.07;1.60;;;16.90;99.90;;;;;;5051151;28;20169;-74
2023/10/04 11:20:09;;;;;;;6.45;1.40;;;16.90;99.90;;;;;;5050035;28;20303;-74
2023/10/04 11:22:40;;;;;;;5.90;0.98;;;16.80;99.90;;;;;;5051170;28;20177;-75
2023/10/04 11:25:08;;;;;;;9.70;1.80;;;16.80;99.90;;;;;;5051411;28;20209;-74
2023/10/04 11:27:37;;;;;;;9.07;1.15;;;16.60;99.90;;;;;;5051185;28;20271;-74
2023/10/04 11:30:05;;;;;;;9.18;1.60;;;16.50;99.90;;;;;;5049753;28;20259;-74
2023/10/04 11:32:31;;;;;;;9.13;1.33;;;16.70;99.90;;;;;;5051227;28;20180;-74
2023/10/04 11:34:57;;;;;;;3.40;0.93;;;16.50;99.90;;;;;;5051008;28;20177;-74
2023/10/04 11:37:29;;;;;;;5.82;1.02;;;16.60;99.90;;;;;;5050991;28;20646;-76
2023/10/04 11:39:55;;;;;;;5.97;1.30;;;16.70;99.90;;;;;;5051047;28;20170;-74
2023/10/04 11:42:23;;;;;;;8.40;1.63;;;17.00;99.90;;;;;;5050845;28;20663;-74
2023/10/04 11:44:49;;;;;;;5.97;1.80;;;17.20;99.90;;;;;;5049323;28;20225;-74
2023/10/04 11:47:26;;;;;;;11.48;2.40;;;17.50;99.90;;;;;;5050924;28;20173;-74
2023/10/04 11:49:58;;;;;;;10.50;1.77;;;18.30;99.90;;;;;;5050924;28;20169;-73
2023/10/04 11:52:31;;;;;;;8.23;1.30;;;18.60;99.90;;;;;;5051102;28;20185;-74
2023/10/04 11:54:58;;;;;;;2.80;1.30;;;19.10;5.40;;;;;;5050812;28;20252;-74
2023/10/04 11:57:28;;;;;;;6.80;1.30;;;19.10;1.00;;;;;;5049552;28;20165;-74
2023/10/04 12:00:15;;;;;;;6.63;1.52;;;20.10;1.00;;;;;;5050668;28;20169;-75
2023/10/04 12:02:42;;;;;;;6.50;1.15;;;20.30;1.00;;;;;;5050732;28;20181;-74
2023/10/04 12:05:08;;;;;;;6.93;1.13;;;19.40;1.00;;;;;;5050924;28;20266;-74
2023/10/04 12:07:34;;;;;;;7.30;1.00;;;20.40;1.00;;;;;;5051298;28;20586;-74
2023/10/04 12:09:59;;;;;;;5.00;0.95;;;20.20;1.00;;;;;;5054776;28;20260;-74
2023/10/04 12:12:25;;;;;;;6.32;1.35;;;19.80;1.00;;;;;;5054551;28;20169;-75
2023/10/04 12:14:51;;;;;;;7.10;1.08;;;19.20;99.90;;;;;;5054465;28;20187;-74
2023/10/04 12:17:17;;;;;;;10.32;1.55;;;19.40;1.00;;;;;;5054529;28;20248;-74
2023/10/04 12:19:42;;;;;;;8.73;1.58;;;18.80;1.00;;;;;;5054581;28;20592;-75
2023/10/04 12:22:08;;;;;;;9.38;1.05;;;18.70;1.00;;;;;;5054575;28;20173;-74
2023/10/04 12:24:38;;;;;;;4.32;0.85;;;18.80;1.00;;;;;;5054351;28;20176;-74
2023/10/04 12:27:08;;;;;;;8.88;1.58;;;19.20;1.00;;;;;;5053110;28;20196;-74
2023/10/04 12:29:37;;;;;;;8.20;1.42;;;20.10;1.00;;;;;;5054376;28;20250;-75
2023/10/04 12:32:03;;;;;;;5.53;0.95;;;;;;;;;;5054515;28;20191;-75
2023/10/04 12:34:30;;;;;;;10.25;1.40;;;19.90;99.90;;;;;;5054305;28;20276;-75
2023/10/04 12:36:56;;;;;;;5.18;0.88;;;;;;;;;;5054300;28;20185;-75
2023/10/04 12:39:23;;;;;;;6.47;1.00;;;19.60;45.20;;;;;;5054262;28;20170;-75
2023/10/04 12:41:49;;;;;;;8.15;1.60;;;18.80;99.90;;;;;;5052775;28;20589;-75
2023/10/04 12:44:19;;;;;;;4.45;1.23;;;18.40;99.90;;;;;;5053863;28;20162;-75
2023/10/04 12:46:47;;;;;;;12.52;1.35;;;18.40;1.00;;;;;;5054023;28;20760;-75
2023/10/04 12:49:15;;;;;;;10.27;1.40;;;18.10;1.00;;;;;;5042934;28;20214;-75
2023/10/04 12:51:40;;;;;;;8.60;1.17;;;18.00;99.90;;;;;;5048488;28;20200;-75
2023/10/04 12:54:09;;;;;;;7.07;1.10;;;18.60;99.90;;;;;;5052455;28;20177;-75
2023/10/04 12:56:36;;;;;;;7.55;1.30;;;18.50;1.00;;;;;;5034111;28;20178;-75
2023/10/04 12:59:03;;;;;;;5.63;0.98;;;18.90;1.00;;;;;;5033829;28;20178;-75
2023/10/04 13:01:29;;;;;;;7.72;1.20;;;19.20;1.00;;;;;;5033786;28;20192;-74
2023/10/04 13:03:55;;;;;;;8.13;1.27;;;19.50;99.90;;;;;;5033892;28;20655;-75
2023/10/04 13:06:21;;;;;;;29.20;3.28;;;19.60;99.90;;;;;;5035304;28;20221;-74
2023/10/04 13:08:46;;;;;;;18.55;2.85;;;19.70;1.00;;;;;;5053621;28;20170;-75
2023/10/04 13:11:14;;;;;;;6.47;1.25;;;20.10;1.00;;;;;;5053756;28;20661;-76
2023/10/04 13:13:40;;;;;;;11.40;1.60;;;20.20;1.00;;;;;;5053572;28;20200;-75